sensor_id;sensor_type;location;lat;lon;timestamp;temperature;humidity
30381;DHT22;17169;50.966;11.038;2022-11-20T00:00:27;-4.20;99.90
30381;DHT22;17169;50.966;11.038;2022-11-20T00:03:30;-4.30;99.90
30381;DHT22;17169;50.966;11.038;2022-11-20T00:06:32;-4.30;99.90
30381;DHT22;17169;50.966;11.038;2022-11-20T00:09:36;-4.20;99.90
30381;DHT22;17169;50.966;11.038;2022-11-20T00:12:38;-4.30;99.90
30381;DHT22;17169;50.966;11.038;2022-11-20T00:15:41;-4.30;99.90
30381;DHT22;17169;50.966;11.038;2022-11-20T00:18:43;-4.30;99.90
30381;DHT22;17169;50.966;11.038;2022-11-20T00:21:46;-4.40;99.90
30381;DHT22;17169;50.966;11.038;2022-11-20T00:24:50;-4.40;99.90
30381;DHT22;17169;50.966;11.038;2022-11-20T00:27:52;-4.40;99.90
30381;DHT22;17169;50.966;11.038;2022-11-20T00:31:00;-4.40;99.90
30381;DHT22;17169;50.966;11.038;2022-11-20T00:34:03;-4.40;99.90
30381;DHT22;17169;50.966;11.038;2022-11-20T00:37:05;-4.50;99.90
30381;DHT22;17169;50.966;11.038;2022-11-20T00:40:10;-4.50;99.90
30381;DHT22;17169;50.966;11.038;2022-11-20T00:43:12;-4.50;99.90
30381;DHT22;17169;50.966;11.038;2022-11-20T00:46:16;-4.60;99.90
30381;DHT22;17169;50.966;11.038;2022-11-20T00:49:19;-4.60;99.90
30381;DHT22;17169;50.966;11.038;2022-11-20T00:52:21;-4.80;99.90
30381;DHT22;17169;50.966;11.038;2022-11-20T00:55:25;-4.70;99.90
30381;DHT22;17169;50.966;11.038;2022-11-20T00:58:30;-4.70;99.90
30381;DHT22;17169;50.966;11.038;2022-11-20T01:01:32;-4.70;99.90
30381;DHT22;17169;50.966;11.038;2022-11-20T01:04:35;-4.70;99.90
30381;DHT22;17169;50.966;11.038;2022-11-20T01:07:37;-4.80;99.90
30381;DHT22;17169;50.966;11.038;2022-11-20T01:10:41;-4.70;99.90
30381;DHT22;17169;50.966;11.038;2022-11-20T01:13:45;-4.70;99.90
30381;DHT22;17169;50.966;11.038;2022-11-20T01:16:49;-4.70;99.90
30381;DHT22;17169;50.966;11.038;2022-11-20T01:19:51;-4.70;99.90
30381;DHT22;17169;50.966;11.038;2022-11-20T01:22:53;-4.80;99.90
30381;DHT22;17169;50.966;11.038;2022-11-20T01:25:59;-4.80;99.90
30381;DHT22;17169;50.966;11.038;2022-11-20T01:29:03;-4.80;99.90
30381;DHT22;17169;50.966;11.038;2022-11-20T01:32:06;-4.80;99.90
30381;DHT22;17169;50.966;11.038;2022-11-20T01:35:08;-4.80;99.90
30381;DHT22;17169;50.966;11.038;2022-11-20T01:38:11;-4.80;99.90
30381;DHT22;17169;50.966;11.038;2022-11-20T01:41:15;-4.80;99.90
30381;DHT22;17169;50.966;11.038;2022-11-20T01:44:51;-4.90;99.90
30381;DHT22;17169;50.966;11.038;2022-11-20T01:47:54;-4.90;99.90
30381;DHT22;17169;50.966;11.038;2022-11-20T01:50:58;-4.90;99.90
30381;DHT22;17169;50.966;11.038;2022-11-20T01:54:03;-4.90;99.90
30381;DHT22;17169;50.966;11.038;2022-11-20T01:57:10;-4.90;99.90
30381;DHT22;17169;50.966;11.038;2022-11-20T02:00:15;-4.80;99.90
30381;DHT22;17169;50.966;11.038;2022-11-20T02:03:19;-4.80;99.90
30381;DHT22;17169;50.966;11.038;2022-11-20T02:06:24;-4.70;99.90
30381;DHT22;17169;50.966;11.038;2022-11-20T02:09:27;-4.70;99.90
30381;DHT22;17169;50.966;11.038;2022-11-20T02:12:31;-4.80;99.90
30381;DHT22;17169;50.966;11.038;2022-11-20T02:15:52;-4.80;99.90
30381;DHT22;17169;50.966;11.038;2022-11-20T02:18:56;-4.80;99.90
30381;DHT22;17169;50.966;11.038;2022-11-20T02:22:03;-4.90;99.90
30381;DHT22;17169;50.966;11.038;2022-11-20T02:25:09;-4.90;99.90
30381;DHT22;17169;50.966;11.038;2022-11-20T02:28:12;-4.90;99.90
30381;DHT22;17169;50.966;11.038;2022-11-20T02:31:14;-5.00;99.90
30381;DHT22;17169;50.966;11.038;2022-11-20T02:34:17;-5.00;99.90
30381;DHT22;17169;50.966;11.038;2022-11-20T02:37:20;-4.90;99.90
30381;DHT22;17169;50.966;11.038;2022-11-20T02:40:24;-4.90;99.90
30381;DHT22;17169;50.966;11.038;2022-11-20T02:43:27;-4.90;99.90
30381;DHT22;17169;50.966;11.038;2022-11-20T02:46:30;-4.90;99.90
30381;DHT22;17169;50.966;11.038;2022-11-20T02:49:32;-4.90;99.90
30381;DHT22;17169;50.966;11.038;2022-11-20T02:52:35;-4.90;99.90
30381;DHT22;17169;50.966;11.038;2022-11-20T02:55:38;-4.90;99.90
30381;DHT22;17169;50.966;11.038;2022-11-20T02:58:41;-4.90;99.90
30381;DHT22;17169;50.966;11.038;2022-11-20T03:01:43;-4.90;99.90
30381;DHT22;17169;50.966;11.038;2022-11-20T03:04:45;-5.00;99.90
30381;DHT22;17169;50.966;11.038;2022-11-20T03:07:48;-5.10;99.90
30381;DHT22;17169;50.966;11.038;2022-11-20T03:10:52;-5.10;99.90
30381;DHT22;17169;50.966;11.038;2022-11-20T03:13:54;-5.20;99.90
30381;DHT22;17169;50.966;11.038;2022-11-20T03:16:57;-5.10;99.90
30381;DHT22;17169;50.966;11.038;2022-11-20T03:19:59;-5.10;99.90
30381;DHT22;17169;50.966;11.038;2022-11-20T03:23:02;-5.10;99.90
30381;DHT22;17169;50.966;11.038;2022-11-20T03:26:11;-5.20;99.90
30381;DHT22;17169;50.966;11.038;2022-11-20T03:29:13;-5.10;99.90
30381;DHT22;17169;50.966;11.038;2022-11-20T03:32:16;-5.10;99.90
30381;DHT22;17169;50.966;11.038;2022-11-20T03:35:18;-5.10;99.90
30381;DHT22;17169;50.966;11.038;2022-11-20T03:38:20;-5.10;99.90
30381;DHT22;17169;50.966;11.038;2022-11-20T03:41:26;-5.10;99.90
30381;DHT22;17169;50.966;11.038;2022-11-20T03:44:29;-5.10;99.90
30381;DHT22;17169;50.966;11.038;2022-11-20T03:47:31;-5.20;99.90
30381;DHT22;17169;50.966;11.038;2022-11-20T03:50:33;-5.20;99.90
30381;DHT22;17169;50.966;11.038;2022-11-20T03:53:36;-5.10;99.90
30381;DHT22;17169;50.966;11.038;2022-11-20T03:56:40;-5.00;99.90
30381;DHT22;17169;50.966;11.038;2022-11-20T03:59:42;-5.00;99.90
30381;DHT22;17169;50.966;11.038;2022-11-20T04:02:44;-5.10;99.90
30381;DHT22;17169;50.966;11.038;2022-11-20T04:05:47;-5.10;99.90
30381;DHT22;17169;50.966;11.038;2022-11-20T04:08:49;-5.10;99.90
30381;DHT22;17169;50.966;11.038;2022-11-20T04:11:53;-5.10;99.90
30381;DHT22;17169;50.966;11.038;2022-11-20T04:14:56;-5.10;99.90
30381;DHT22;17169;50.966;11.038;2022-11-20T04:17:58;-5.20;99.90
30381;DHT22;17169;50.966;11.038;2022-11-20T04:21:01;-5.30;99.90
30381;DHT22;17169;50.966;11.038;2022-11-20T04:24:04;-5.20;99.90
30381;DHT22;17169;50.966;11.038;2022-11-20T04:27:08;-5.30;99.90
30381;DHT22;17169;50.966;11.038;2022-11-20T04:30:11;-5.30;99.90
30381;DHT22;17169;50.966;11.038;2022-11-20T04:33:14;-5.40;99.90
30381;DHT22;17169;50.966;11.038;2022-11-20T04:36:18;-5.40;99.90
30381;DHT22;17169;50.966;11.038;2022-11-20T04:39:20;-5.50;99.90
30381;DHT22;17169;50.966;11.038;2022-11-20T04:42:24;-5.50;99.90
30381;DHT22;17169;50.966;11.038;2022-11-20T04:45:32;-5.60;99.90
30381;DHT22;17169;50.966;11.038;2022-11-20T04:48:35;-5.70;99.90
30381;DHT22;17169;50.966;11.038;2022-11-20T04:51:37;-5.70;99.90
30381;DHT22;17169;50.966;11.038;2022-11-20T04:54:39;-5.70;99.90
30381;DHT22;17169;50.966;11.038;2022-11-20T04:57:43;-5.70;99.90
30381;DHT22;17169;50.966;11.038;2022-11-20T05:00:45;-5.80;99.90
30381;DHT22;17169;50.966;11.038;2022-11-20T05:03:48;-5.80;99.90
30381;DHT22;17169;50.966;11.038;2022-11-20T05:06:50;-5.70;99.90
30381;DHT22;17169;50.966;11.038;2022-11-20T05:09:53;-5.70;99.90
30381;DHT22;17169;50.966;11.038;2022-11-20T05:12:57;-5.60;99.90
30381;DHT22;17169;50.966;11.038;2022-11-20T05:16:03;-5.50;99.90
30381;DHT22;17169;50.966;11.038;2022-11-20T05:19:05;-5.40;99.90
30381;DHT22;17169;50.966;11.038;2022-11-20T05:22:08;-5.30;99.90
30381;DHT22;17169;50.966;11.038;2022-11-20T05:25:11;-5.20;99.90
30381;DHT22;17169;50.966;11.038;2022-11-20T05:28:15;-5.10;99.90
30381;DHT22;17169;50.966;11.038;2022-11-20T05:31:19;-4.90;99.90
30381;DHT22;17169;50.966;11.038;2022-11-20T05:34:21;-4.80;99.90
30381;DHT22;17169;50.966;11.038;2022-11-20T05:37:23;-4.70;99.90
30381;DHT22;17169;50.966;11.038;2022-11-20T05:40:26;-4.50;99.90
30381;DHT22;17169;50.966;11.038;2022-11-20T05:43:31;-4.40;99.90
30381;DHT22;17169;50.966;11.038;2022-11-20T05:46:34;-4.30;99.90
30381;DHT22;17169;50.966;11.038;2022-11-20T05:49:36;-4.20;99.90
30381;DHT22;17169;50.966;11.038;2022-11-20T05:52:39;-4.20;99.90
30381;DHT22;17169;50.966;11.038;2022-11-20T05:55:41;-4.20;99.90
30381;DHT22;17169;50.966;11.038;2022-11-20T05:58:45;-4.10;99.90
30381;DHT22;17169;50.966;11.038;2022-11-20T06:01:48;-4.10;99.90
30381;DHT22;17169;50.966;11.038;2022-11-20T06:04:50;-4.20;99.90
30381;DHT22;17169;50.966;11.038;2022-11-20T06:07:52;-4.20;99.90
30381;DHT22;17169;50.966;11.038;2022-11-20T06:10:55;-4.20;99.90
30381;DHT22;17169;50.966;11.038;2022-11-20T06:13:59;-4.10;99.90
30381;DHT22;17169;50.966;11.038;2022-11-20T06:17:01;-4.00;99.90
30381;DHT22;17169;50.966;11.038;2022-11-20T06:20:04;-4.00;99.90
30381;DHT22;17169;50.966;11.038;2022-11-20T06:23:07;-3.90;99.90
30381;DHT22;17169;50.966;11.038;2022-11-20T06:26:11;-3.90;99.90
30381;DHT22;17169;50.966;11.038;2022-11-20T06:29:15;-3.90;99.90
30381;DHT22;17169;50.966;11.038;2022-11-20T06:32:17;-3.90;99.90
30381;DHT22;17169;50.966;11.038;2022-11-20T06:35:20;-3.80;99.90
30381;DHT22;17169;50.966;11.038;2022-11-20T06:38:22;-3.70;99.90
30381;DHT22;17169;50.966;11.038;2022-11-20T06:41:25;-3.80;99.90
30381;DHT22;17169;50.966;11.038;2022-11-20T06:44:28;-3.80;99.90
30381;DHT22;17169;50.966;11.038;2022-11-20T06:47:31;-3.80;99.90
30381;DHT22;17169;50.966;11.038;2022-11-20T06:50:33;-3.80;99.90
30381;DHT22;17169;50.966;11.038;2022-11-20T06:53:36;-3.80;99.90
30381;DHT22;17169;50.966;11.038;2022-11-20T06:56:39;-3.70;99.90
30381;DHT22;17169;50.966;11.038;2022-11-20T06:59:43;-3.60;99.90
30381;DHT22;17169;50.966;11.038;2022-11-20T07:02:45;-3.50;99.90
30381;DHT22;17169;50.966;11.038;2022-11-20T07:05:47;-3.50;99.90
30381;DHT22;17169;50.966;11.038;2022-11-20T07:08:50;-3.40;99.90
30381;DHT22;17169;50.966;11.038;2022-11-20T07:11:53;-3.40;99.90
30381;DHT22;17169;50.966;11.038;2022-11-20T07:14:57;-3.30;99.90
30381;DHT22;17169;50.966;11.038;2022-11-20T07:17:59;-3.30;99.90
30381;DHT22;17169;50.966;11.038;2022-11-20T07:21:02;-3.30;99.90
30381;DHT22;17169;50.966;11.038;2022-11-20T07:24:05;-3.30;99.90
30381;DHT22;17169;50.966;11.038;2022-11-20T07:27:07;-3.20;99.90
30381;DHT22;17169;50.966;11.038;2022-11-20T07:30:12;-3.10;99.90
30381;DHT22;17169;50.966;11.038;2022-11-20T07:33:15;-3.00;99.90
30381;DHT22;17169;50.966;11.038;2022-11-20T07:36:17;-2.80;99.90
30381;DHT22;17169;50.966;11.038;2022-11-20T07:39:20;-2.70;99.90
30381;DHT22;17169;50.966;11.038;2022-11-20T07:42:22;-2.60;99.90
30381;DHT22;17169;50.966;11.038;2022-11-20T07:45:26;-2.60;99.90
30381;DHT22;17169;50.966;11.038;2022-11-20T07:48:28;-2.50;99.90
30381;DHT22;17169;50.966;11.038;2022-11-20T07:51:30;-2.50;99.90
30381;DHT22;17169;50.966;11.038;2022-11-20T07:54:33;-2.50;99.90
30381;DHT22;17169;50.966;11.038;2022-11-20T07:57:35;-2.50;99.90
30381;DHT22;17169;50.966;11.038;2022-11-20T08:00:39;-2.50;99.90
30381;DHT22;17169;50.966;11.038;2022-11-20T08:03:41;-2.50;99.90
30381;DHT22;17169;50.966;11.038;2022-11-20T08:06:44;-2.50;99.90
30381;DHT22;17169;50.966;11.038;2022-11-20T08:09:46;-2.50;99.90
30381;DHT22;17169;50.966;11.038;2022-11-20T08:12:50;-2.40;99.90
30381;DHT22;17169;50.966;11.038;2022-11-20T08:16:11;-2.40;99.90
30381;DHT22;17169;50.966;11.038;2022-11-20T08:19:15;-2.40;99.90
30381;DHT22;17169;50.966;11.038;2022-11-20T08:22:17;-2.30;99.90
30381;DHT22;17169;50.966;11.038;2022-11-20T08:25:21;-2.30;99.90
30381;DHT22;17169;50.966;11.038;2022-11-20T08:28:23;-2.20;99.90
30381;DHT22;17169;50.966;11.038;2022-11-20T08:31:27;-2.10;99.90
30381;DHT22;17169;50.966;11.038;2022-11-20T08:34:30;-2.00;99.90
30381;DHT22;17169;50.966;11.038;2022-11-20T08:37:32;-2.00;99.90
30381;DHT22;17169;50.966;11.038;2022-11-20T08:40:34;-2.10;99.90
30381;DHT22;17169;50.966;11.038;2022-11-20T08:43:37;-2.00;99.90
30381;DHT22;17169;50.966;11.038;2022-11-20T08:46:41;-1.90;99.90
30381;DHT22;17169;50.966;11.038;2022-11-20T08:49:44;-1.80;99.90
30381;DHT22;17169;50.966;11.038;2022-11-20T08:52:46;-1.70;99.90
30381;DHT22;17169;50.966;11.038;2022-11-20T08:55:48;-1.60;99.90
30381;DHT22;17169;50.966;11.038;2022-11-20T08:58:51;-1.60;99.90
30381;DHT22;17169;50.966;11.038;2022-11-20T09:01:55;-1.60;99.90
30381;DHT22;17169;50.966;11.038;2022-11-20T09:04:57;-1.60;99.90
30381;DHT22;17169;50.966;11.038;2022-11-20T09:08:00;-1.50;99.90
30381;DHT22;17169;50.966;11.038;2022-11-20T09:11:03;-1.40;99.90
30381;DHT22;17169;50.966;11.038;2022-11-20T09:14:05;-1.40;99.90
30381;DHT22;17169;50.966;11.038;2022-11-20T09:17:09;-1.40;99.90
30381;DHT22;17169;50.966;11.038;2022-11-20T09:20:14;-1.40;99.90
30381;DHT22;17169;50.966;11.038;2022-11-20T09:23:17;-1.20;99.90
30381;DHT22;17169;50.966;11.038;2022-11-20T09:26:19;-1.10;99.90
30381;DHT22;17169;50.966;11.038;2022-11-20T09:29:22;-1.00;99.90
30381;DHT22;17169;50.966;11.038;2022-11-20T09:32:25;-0.90;99.90
30381;DHT22;17169;50.966;11.038;2022-11-20T09:35:28;-0.90;99.90
30381;DHT22;17169;50.966;11.038;2022-11-20T09:38:30;-0.90;99.90
30381;DHT22;17169;50.966;11.038;2022-11-20T09:41:44;-0.90;99.90
30381;DHT22;17169;50.966;11.038;2022-11-20T09:45:10;-0.80;99.90
30381;DHT22;17169;50.966;11.038;2022-11-20T09:48:27;-0.70;99.90
30381;DHT22;17169;50.966;11.038;2022-11-20T09:51:39;-0.60;99.90
30381;DHT22;17169;50.966;11.038;2022-11-20T09:54:44;-0.50;99.90
30381;DHT22;17169;50.966;11.038;2022-11-20T09:57:48;-0.40;99.90
30381;DHT22;17169;50.966;11.038;2022-11-20T10:00:53;-0.40;99.90
30381;DHT22;17169;50.966;11.038;2022-11-20T10:04:01;-0.30;99.90
30381;DHT22;17169;50.966;11.038;2022-11-20T10:07:08;-0.20;99.90
30381;DHT22;17169;50.966;11.038;2022-11-20T10:10:15;-0.10;99.90
30381;DHT22;17169;50.966;11.038;2022-11-20T10:13:27;0.00;99.90
30381;DHT22;17169;50.966;11.038;2022-11-20T10:16:38;0.00;99.90
30381;DHT22;17169;50.966;11.038;2022-11-20T10:20:01;0.10;99.90
30381;DHT22;17169;50.966;11.038;2022-11-20T10:23:17;0.10;99.90
30381;DHT22;17169;50.966;11.038;2022-11-20T10:26:25;0.20;99.90
30381;DHT22;17169;50.966;11.038;2022-11-20T10:29:33;0.30;99.90
30381;DHT22;17169;50.966;11.038;2022-11-20T10:32:38;0.30;99.90
30381;DHT22;17169;50.966;11.038;2022-11-20T10:35:45;0.40;99.90
30381;DHT22;17169;50.966;11.038;2022-11-20T10:38:56;0.50;99.90
30381;DHT22;17169;50.966;11.038;2022-11-20T10:41:59;0.60;99.90
30381;DHT22;17169;50.966;11.038;2022-11-20T10:45:13;0.70;99.90
30381;DHT22;17169;50.966;11.038;2022-11-20T10:48:20;0.70;99.90
30381;DHT22;17169;50.966;11.038;2022-11-20T10:51:35;0.80;99.90
30381;DHT22;17169;50.966;11.038;2022-11-20T10:54:43;0.90;99.90
30381;DHT22;17169;50.966;11.038;2022-11-20T10:57:52;1.00;99.90
30381;DHT22;17169;50.966;11.038;2022-11-20T11:01:03;1.10;99.90
30381;DHT22;17169;50.966;11.038;2022-11-20T11:04:18;1.10;99.90
30381;DHT22;17169;50.966;11.038;2022-11-20T11:07:25;1.10;99.90
30381;DHT22;17169;50.966;11.038;2022-11-20T11:10:35;1.10;99.90
30381;DHT22;17169;50.966;11.038;2022-11-20T11:13:38;1.20;99.90
30381;DHT22;17169;50.966;11.038;2022-11-20T11:16:49;1.20;99.90
30381;DHT22;17169;50.966;11.038;2022-11-20T11:20:04;1.30;99.90
30381;DHT22;17169;50.966;11.038;2022-11-20T11:23:29;1.30;99.90
30381;DHT22;17169;50.966;11.038;2022-11-20T11:26:32;1.30;99.90
30381;DHT22;17169;50.966;11.038;2022-11-20T11:29:35;1.20;99.90
30381;DHT22;17169;50.966;11.038;2022-11-20T11:32:37;1.20;99.90
30381;DHT22;17169;50.966;11.038;2022-11-20T11:35:45;1.20;99.90
30381;DHT22;17169;50.966;11.038;2022-11-20T11:38:51;1.30;99.90
30381;DHT22;17169;50.966;11.038;2022-11-20T11:41:55;1.30;99.90
30381;DHT22;17169;50.966;11.038;2022-11-20T11:44:59;1.30;99.90
30381;DHT22;17169;50.966;11.038;2022-11-20T11:48:09;1.20;99.90
30381;DHT22;17169;50.966;11.038;2022-11-20T11:51:11;1.20;99.90
30381;DHT22;17169;50.966;11.038;2022-11-20T11:54:23;1.30;99.90
30381;DHT22;17169;50.966;11.038;2022-11-20T11:57:32;1.30;99.90
30381;DHT22;17169;50.966;11.038;2022-11-20T12:00:39;1.30;99.90
30381;DHT22;17169;50.966;11.038;2022-11-20T12:03:47;1.50;99.90
30381;DHT22;17169;50.966;11.038;2022-11-20T12:07:00;1.50;99.90
30381;DHT22;17169;50.966;11.038;2022-11-20T12:10:08;1.50;99.90
30381;DHT22;17169;50.966;11.038;2022-11-20T12:13:34;1.40;99.90
30381;DHT22;17169;50.966;11.038;2022-11-20T12:16:39;1.60;99.90
30381;DHT22;17169;50.966;11.038;2022-11-20T12:19:42;1.60;99.90
30381;DHT22;17169;50.966;11.038;2022-11-20T12:22:50;1.70;99.90
30381;DHT22;17169;50.966;11.038;2022-11-20T12:25:59;1.70;99.90
30381;DHT22;17169;50.966;11.038;2022-11-20T12:29:09;1.60;99.90
30381;DHT22;17169;50.966;11.038;2022-11-20T12:36:12;1.50;99.90
30381;DHT22;17169;50.966;11.038;2022-11-20T12:39:34;1.50;99.90
30381;DHT22;17169;50.966;11.038;2022-11-20T12:42:46;1.50;99.90
30381;DHT22;17169;50.966;11.038;2022-11-20T12:46:15;1.50;99.90
30381;DHT22;17169;50.966;11.038;2022-11-20T12:49:29;1.50;99.90
30381;DHT22;17169;50.966;11.038;2022-11-20T12:52:38;1.50;99.90
30381;DHT22;17169;50.966;11.038;2022-11-20T12:55:48;1.50;99.90
30381;DHT22;17169;50.966;11.038;2022-11-20T12:59:02;1.50;99.90
30381;DHT22;17169;50.966;11.038;2022-11-20T13:02:15;1.50;99.90
30381;DHT22;17169;50.966;11.038;2022-11-20T13:05:24;1.60;99.90
30381;DHT22;17169;50.966;11.038;2022-11-20T13:08:33;1.60;99.90
30381;DHT22;17169;50.966;11.038;2022-11-20T13:11:41;1.70;99.90
30381;DHT22;17169;50.966;11.038;2022-11-20T13:14:52;1.70;99.90
30381;DHT22;17169;50.966;11.038;2022-11-20T13:17:58;1.70;99.90
30381;DHT22;17169;50.966;11.038;2022-11-20T13:21:01;1.80;99.90
30381;DHT22;17169;50.966;11.038;2022-11-20T13:24:04;1.80;99.90
30381;DHT22;17169;50.966;11.038;2022-11-20T13:27:19;1.80;99.90
30381;DHT22;17169;50.966;11.038;2022-11-20T13:30:24;1.80;99.90
30381;DHT22;17169;50.966;11.038;2022-11-20T13:33:29;1.70;99.90
30381;DHT22;17169;50.966;11.038;2022-11-20T13:36:32;1.80;99.90
30381;DHT22;17169;50.966;11.038;2022-11-20T13:39:37;1.70;99.90
30381;DHT22;17169;50.966;11.038;2022-11-20T13:42:44;1.60;99.90
30381;DHT22;17169;50.966;11.038;2022-11-20T13:45:59;1.70;99.90
30381;DHT22;17169;50.966;11.038;2022-11-20T13:49:07;1.60;99.90
30381;DHT22;17169;50.966;11.038;2022-11-20T13:52:32;1.50;99.90
30381;DHT22;17169;50.966;11.038;2022-11-20T13:55:42;1.50;99.90
30381;DHT22;17169;50.966;11.038;2022-11-20T13:58:56;1.40;99.90
30381;DHT22;17169;50.966;11.038;2022-11-20T14:02:02;1.40;99.90
30381;DHT22;17169;50.966;11.038;2022-11-20T14:05:05;1.40;99.90
30381;DHT22;17169;50.966;11.038;2022-11-20T14:08:24;1.30;99.90
30381;DHT22;17169;50.966;11.038;2022-11-20T14:11:28;1.20;99.90
30381;DHT22;17169;50.966;11.038;2022-11-20T14:14:33;1.20;99.90
30381;DHT22;17169;50.966;11.038;2022-11-20T14:17:38;1.10;99.90
30381;DHT22;17169;50.966;11.038;2022-11-20T14:20:42;1.10;99.90
30381;DHT22;17169;50.966;11.038;2022-11-20T14:23:44;1.00;99.90
30381;DHT22;17169;50.966;11.038;2022-11-20T14:26:47;1.00;99.90
30381;DHT22;17169;50.966;11.038;2022-11-20T14:29:50;1.00;99.90
30381;DHT22;17169;50.966;11.038;2022-11-20T14:32:57;0.90;99.90
30381;DHT22;17169;50.966;11.038;2022-11-20T14:36:00;0.90;99.90
30381;DHT22;17169;50.966;11.038;2022-11-20T14:39:02;1.00;99.90
30381;DHT22;17169;50.966;11.038;2022-11-20T14:42:15;0.90;99.90
30381;DHT22;17169;50.966;11.038;2022-11-20T14:45:18;0.90;99.90
30381;DHT22;17169;50.966;11.038;2022-11-20T14:48:26;0.90;99.90
30381;DHT22;17169;50.966;11.038;2022-11-20T14:51:32;0.90;99.90
30381;DHT22;17169;50.966;11.038;2022-11-20T14:54:43;0.90;99.90
30381;DHT22;17169;50.966;11.038;2022-11-20T14:57:54;0.90;99.90
30381;DHT22;17169;50.966;11.038;2022-11-20T15:00:59;0.80;99.90
30381;DHT22;17169;50.966;11.038;2022-11-20T15:04:06;0.80;99.90
30381;DHT22;17169;50.966;11.038;2022-11-20T15:07:10;0.80;99.90
30381;DHT22;17169;50.966;11.038;2022-11-20T15:10:19;0.70;99.90
30381;DHT22;17169;50.966;11.038;2022-11-20T15:13:28;0.70;99.90
30381;DHT22;17169;50.966;11.038;2022-11-20T15:16:32;0.60;99.90
30381;DHT22;17169;50.966;11.038;2022-11-20T15:19:36;0.60;99.90
30381;DHT22;17169;50.966;11.038;2022-11-20T15:22:38;0.50;99.90
30381;DHT22;17169;50.966;11.038;2022-11-20T15:25:41;0.50;99.90
30381;DHT22;17169;50.966;11.038;2022-11-20T15:28:45;0.50;99.90
30381;DHT22;17169;50.966;11.038;2022-11-20T15:31:48;0.40;99.90
30381;DHT22;17169;50.966;11.038;2022-11-20T15:34:53;0.40;99.90
30381;DHT22;17169;50.966;11.038;2022-11-20T15:37:55;0.30;99.90
30381;DHT22;17169;50.966;11.038;2022-11-20T15:40:58;0.30;99.90
30381;DHT22;17169;50.966;11.038;2022-11-20T15:44:00;0.30;99.90
30381;DHT22;17169;50.966;11.038;2022-11-20T15:47:02;0.30;99.90
30381;DHT22;17169;50.966;11.038;2022-11-20T15:50:10;0.30;99.90
30381;DHT22;17169;50.966;11.038;2022-11-20T15:53:17;0.20;99.90
30381;DHT22;17169;50.966;11.038;2022-11-20T15:56:20;0.20;99.90
30381;DHT22;17169;50.966;11.038;2022-11-20T15:59:22;0.20;99.90
30381;DHT22;17169;50.966;11.038;2022-11-20T16:02:25;0.20;99.90
30381;DHT22;17169;50.966;11.038;2022-11-20T16:05:29;0.20;99.90
30381;DHT22;17169;50.966;11.038;2022-11-20T16:08:32;0.20;99.90
30381;DHT22;17169;50.966;11.038;2022-11-20T16:11:35;0.20;99.90
30381;DHT22;17169;50.966;11.038;2022-11-20T16:14:37;0.30;99.90
30381;DHT22;17169;50.966;11.038;2022-11-20T16:17:57;0.30;99.90
30381;DHT22;17169;50.966;11.038;2022-11-20T16:21:01;0.30;99.90
30381;DHT22;17169;50.966;11.038;2022-11-20T16:24:05;0.40;99.90
30381;DHT22;17169;50.966;11.038;2022-11-20T16:27:08;0.40;99.90
30381;DHT22;17169;50.966;11.038;2022-11-20T16:30:11;0.50;99.90
30381;DHT22;17169;50.966;11.038;2022-11-20T16:33:15;0.50;99.90
30381;DHT22;17169;50.966;11.038;2022-11-20T16:36:22;0.60;99.90
30381;DHT22;17169;50.966;11.038;2022-11-20T16:39:24;0.70;99.90
30381;DHT22;17169;50.966;11.038;2022-11-20T16:42:27;0.80;99.90
30381;DHT22;17169;50.966;11.038;2022-11-20T16:45:29;0.80;99.90
30381;DHT22;17169;50.966;11.038;2022-11-20T16:48:32;0.90;99.90
30381;DHT22;17169;50.966;11.038;2022-11-20T16:51:36;1.00;99.90
30381;DHT22;17169;50.966;11.038;2022-11-20T16:54:38;1.10;99.90
30381;DHT22;17169;50.966;11.038;2022-11-20T16:57:40;1.20;99.90
30381;DHT22;17169;50.966;11.038;2022-11-20T17:00:43;1.20;99.90
30381;DHT22;17169;50.966;11.038;2022-11-20T17:03:52;1.20;99.90
30381;DHT22;17169;50.966;11.038;2022-11-20T17:06:56;1.20;99.90
30381;DHT22;17169;50.966;11.038;2022-11-20T17:09:59;1.30;99.90
30381;DHT22;17169;50.966;11.038;2022-11-20T17:13:02;1.30;99.90
30381;DHT22;17169;50.966;11.038;2022-11-20T17:16:05;1.40;99.90
30381;DHT22;17169;50.966;11.038;2022-11-20T17:19:10;1.40;99.90
30381;DHT22;17169;50.966;11.038;2022-11-20T17:22:14;1.50;99.90
30381;DHT22;17169;50.966;11.038;2022-11-20T17:25:16;1.50;99.90
30381;DHT22;17169;50.966;11.038;2022-11-20T17:28:19;1.60;99.90
30381;DHT22;17169;50.966;11.038;2022-11-20T17:31:21;1.60;99.90
30381;DHT22;17169;50.966;11.038;2022-11-20T17:34:23;1.60;99.90
30381;DHT22;17169;50.966;11.038;2022-11-20T17:37:27;1.60;99.90
30381;DHT22;17169;50.966;11.038;2022-11-20T17:40:30;1.60;99.90
30381;DHT22;17169;50.966;11.038;2022-11-20T17:43:32;1.70;99.90
30381;DHT22;17169;50.966;11.038;2022-11-20T17:46:37;1.70;99.90
30381;DHT22;17169;50.966;11.038;2022-11-20T17:49:39;1.80;99.90
30381;DHT22;17169;50.966;11.038;2022-11-20T17:52:43;1.70;99.90
30381;DHT22;17169;50.966;11.038;2022-11-20T17:55:54;1.70;99.90
30381;DHT22;17169;50.966;11.038;2022-11-20T17:59:14;1.70;99.90
30381;DHT22;17169;50.966;11.038;2022-11-20T18:02:16;1.80;99.90
30381;DHT22;17169;50.966;11.038;2022-11-20T18:05:18;1.90;99.90
30381;DHT22;17169;50.966;11.038;2022-11-20T18:08:22;1.90;99.90
30381;DHT22;17169;50.966;11.038;2022-11-20T18:11:26;2.00;99.90
30381;DHT22;17169;50.966;11.038;2022-11-20T18:14:28;2.00;99.90
30381;DHT22;17169;50.966;11.038;2022-11-20T18:17:33;2.00;99.90
30381;DHT22;17169;50.966;11.038;2022-11-20T18:20:36;2.00;99.90
30381;DHT22;17169;50.966;11.038;2022-11-20T18:23:40;2.10;99.90
30381;DHT22;17169;50.966;11.038;2022-11-20T18:26:42;2.10;99.90
30381;DHT22;17169;50.966;11.038;2022-11-20T18:29:46;2.10;99.90
30381;DHT22;17169;50.966;11.038;2022-11-20T18:32:51;2.10;99.90
30381;DHT22;17169;50.966;11.038;2022-11-20T18:35:53;2.10;99.90
30381;DHT22;17169;50.966;11.038;2022-11-20T18:38:59;2.20;99.90
30381;DHT22;17169;50.966;11.038;2022-11-20T18:42:01;2.20;99.90
30381;DHT22;17169;50.966;11.038;2022-11-20T18:45:21;2.30;99.90
30381;DHT22;17169;50.966;11.038;2022-11-20T18:48:23;2.30;99.90
30381;DHT22;17169;50.966;11.038;2022-11-20T18:51:26;2.30;99.90
30381;DHT22;17169;50.966;11.038;2022-11-20T18:54:30;2.30;99.90
30381;DHT22;17169;50.966;11.038;2022-11-20T18:57:32;2.30;99.90
30381;DHT22;17169;50.966;11.038;2022-11-20T19:00:34;2.30;99.90
30381;DHT22;17169;50.966;11.038;2022-11-20T19:03:37;2.30;99.90
30381;DHT22;17169;50.966;11.038;2022-11-20T19:06:41;2.30;99.90
30381;DHT22;17169;50.966;11.038;2022-11-20T19:12:54;2.30;99.90
30381;DHT22;17169;50.966;11.038;2022-11-20T19:16:01;2.40;99.90
30381;DHT22;17169;50.966;11.038;2022-11-20T19:19:04;2.40;99.90
30381;DHT22;17169;50.966;11.038;2022-11-20T19:22:06;2.40;99.90
30381;DHT22;17169;50.966;11.038;2022-11-20T19:25:09;2.40;99.90